AirNav   Everest Fuels
 
 472 users online  

9IL2 Routh Airport
St Joseph, Illinois, USA

GOING TO ST JOSEPH?


FAA INFORMATION EFFECTIVE 16 JULY 2020

Location

FAA Identifier: 9IL2
Lat/Long: 40-03-54.1220N 088-01-35.1330W
40-03.902033N 088-01.585550W
40.0650339,-88.0264258
(estimated)
Elevation: 668 ft. / 204 m (estimated)
Variation: 01W (1990)
From city: 3 miles S of ST JOSEPH, IL
Time zone: UTC -5 (UTC -6 during Standard Time)
Zip code: 61873

Airport Operations

Airport use: Private use. Permission required prior to landing
Activation date: 02/1992
Control tower: no
ARTCC: CHICAGO CENTER
FSS: SAINT LOUIS FLIGHT SERVICE STATION
Attendance: UNATNDD
Wind indicator: yes
Segmented circle: no

Airport Communications

WX ASOS at CMI (12 nm W): 124.85 (217-355-4072)
WX AWOS-3 at TIP (15 nm N): 119.025 (217-892-4999)

Nearby radio navigation aids

VOR radial/distance  VOR name  Freq  Var
CMIr078/11.6CHAMPAIGN VORTAC110.0003E
DNVr235/25.5DANVILLE VORTAC111.0002E
RBSr167/31.6ROBERTS VOR/DME116.8002E

 
NDB name  Hdg/Dist  Freq  Var  ID
VEALS053/9.340703WCM -.-. --

Airport Services

Runway Information

Runway 18/36

Dimensions: 2664 x 134 ft. / 812 x 41 m
Surface: turf
RUNWAY 18  RUNWAY 36
Traffic pattern: leftleft
Obstructions: 15 ft. roadnone

Airport Ownership and Management from official FAA records

Ownership: Privately-owned
Owner: BETTY ROUTH/LOWELL ROUTH FAM TRUST
BOX 761
ST JOSEPH, IL 61873
Phone 217-469-7480
Manager: PAUL ROUTH
808 E. GRAND AVE
ST JOSEPH, IL 61873
Phone 217-202-6016

Airport Operational Statistics

Aircraft based on the field: 1
Single engine airplanes: 1
    

Additional Remarks

FOR CD CTC CHAMPAIGN APCH AT 217-355-4069, WHEN APCH CLSD CTC CHICAGO ARTCC AT 630-906-8921

Instrument Procedures

There are no published instrument procedures at 9IL2.

Some nearby airports with instrument procedures:

C16 - Frasca Field Airport (9 nm NW)
KCMI - University of Illinois-Willard Airport (12 nm W)
KTIP - Rantoul National Aviation Center Airport-Frank Elliott Field (15 nm N)
KDNV - Vermilion Regional Airport (21 nm E)
1C1 - Paxton Airport (23 nm N)
 
Loc | Ops | Rwys | IFR | FBO | Links
Com | Nav | Svcs | Stats | Notes
Area around 9IL2 (Routh Airport)
 
Road maps at: MapQuest Bing Google
 
Aerial photo
No photo
 
Sectional chart

 
Airport distance calculator
Flying to Routh Airport? Find the distance to fly.

From to 9IL2

Sunrise and sunset
Times for 06-Aug-2020
 Local
(UTC-5)
 Zulu
(UTC)
Morning civil twilight05:2710:27
Sunrise05:5710:57
Sunset19:5900:59
Evening civil twilight20:2901:29

Current date and time
Zulu (UTC)  06-Aug-2020 10:23:51
Local (UTC-5)  06-Aug-2020 05:23:51
 
METAR
KCMI 
11nm W 
060953Z AUTO 00000KT 10SM CLR 12/11 A3014 RMK AO2 SLP203 T01220111
KTIP 
15nm N 
060955Z AUTO 00000KT 10SM CLR 13/13 A3014 RMK AO2 T01260125
KDNV 
21nm NE 
060955Z AUTO 00000KT 10SM CLR 11/11 A3015 RMK AO2 T01140114
TAF
KCMI 
11nm W 
060520Z 0606/0706 VRB03KT P6SM SKC FM061000 VRB03KT 4SM BR SKC FM061300 07004KT P6SM SCT040 BKN100 FM070100 VRB03KT P6SM FEW250
NOTAMs
Click for the latest NOTAMs
NOTAMs are issued by the DoD/FAA and will open in a separate window not controlled by AirNav.

 

 
 

Would you like to see your business listed on this page?

 If your business provides an interesting product or service to pilots, flight crews, aircraft, or users of the Routh Airport, you should consider listing it here.  To start the listing process, click on the button below
 
Add a business
 

Other Pages about Routh Airport

Update a link
 
Copyright © AirNav, LLC. All rights reserved. Privacy Policy  Contact